»·PEaware :: N20791 S36-KORS

N20791 :: S36-KORS

FLIGHT INFORMATION

Flight Status: Arrived
Operator: Privately registered:
United States
More flights under this callsign
Pilot: Russell T. (852)
Aircraft: CESSNA 182 SKYLANE
(C182)
More flights by this aircraft type
Origin: S36 Norman Grier Field
United States
Destination: KORS Orcas Island
United States
More flights between these airports :: More routes between these airports
Route: TAGOR W16 PAE V287 CVV V165 CANDL
File this flight plan on PilotEdge
Remarks:
Altitude:
(Current/Filed)
5,500ft
Speed:
(Current/Filed)
120kts
Departed: 15-May-20 08:59 AM
Arrived: 15-May-20 09:50 AM
Distance/Time
Traveled:
88nm/0:51
Distance/Time
To Go:
Arrived

Flight Plot

Page will automatically refresh every two minutes.

Flight plan parsing failed; only flown route is shown


Map Options




Map Legend


Flown Route
Filed Route
Departure Airport
Arrival Airport
Navaid (VOR, NDB)
Fix

Horizontal Profiles

Position Reports

Time Latitude Longitude Heading Altitude Ground
Speed
15-May-20 08:48 47.332851 -122.102546 350 469ft 0kts
15-May-20 08:49 47.332853 -122.102546 350 469ft 0kts
15-May-20 08:50 47.332854 -122.102547 350 469ft 0kts
15-May-20 08:51 47.332855 -122.102547 350 469ft 0kts
15-May-20 08:52 47.332857 -122.102547 350 469ft 0kts
15-May-20 08:53 47.332858 -122.102548 350 469ft 0kts
15-May-20 08:54 47.332859 -122.102548 350 469ft 0kts
15-May-20 08:55 47.332860 -122.102548 350 469ft 0kts
15-May-20 08:56 47.332862 -122.102548 350 469ft 0kts
15-May-20 08:57 47.332863 -122.102549 350 469ft 0kts
15-May-20 08:58 47.337144 -122.103507 351 501ft 69kts
15-May-20 08:59 47.359054 -122.103054 44 1347ft 100kts
15-May-20 09:00 47.365198 -122.057886 75 2183ft 122kts
15-May-20 09:01 47.382168 -122.014714 53 3003ft 114kts
15-May-20 09:02 47.397740 -121.983922 53 4010ft 94kts
15-May-20 09:03 47.415315 -121.949148 53 4770ft 104kts
15-May-20 09:04 47.433745 -121.917593 15 5495ft 114kts
15-May-20 09:05 47.470512 -121.923652 352 5508ft 145kts
15-May-20 09:06 47.511956 -121.931075 353 5496ft 151kts
15-May-20 09:07 47.552545 -121.938287 353 5502ft 144kts
15-May-20 09:08 47.591392 -121.927479 23 5510ft 143kts
15-May-20 09:09 47.628423 -121.904983 22 5506ft 144kts
15-May-20 09:10 47.667263 -121.899464 354 5510ft 143kts
15-May-20 09:11 47.707011 -121.905422 354 5506ft 144kts
15-May-20 09:12 47.746914 -121.911445 354 5506ft 143kts
15-May-20 09:13 47.786788 -121.917464 354 5505ft 143kts
15-May-20 09:14 47.826568 -121.923478 354 5506ft 143kts
15-May-20 09:15 47.859325 -121.948176 291 5513ft 143kts
15-May-20 09:16 47.874113 -122.003215 277 5502ft 144kts
15-May-20 09:17 47.882691 -122.061284 284 5507ft 143kts
15-May-20 09:18 47.892682 -122.119009 284 5506ft 143kts
15-May-20 09:19 47.902605 -122.176879 284 5506ft 143kts
15-May-20 09:20 47.912542 -122.235036 284 5506ft 144kts
15-May-20 09:21 47.927746 -122.289022 318 5505ft 144kts
15-May-20 09:22 47.957565 -122.329335 317 5507ft 144kts
15-May-20 09:23 47.987282 -122.369866 317 5507ft 144kts
15-May-20 09:24 48.017043 -122.410627 317 5506ft 144kts
15-May-20 09:25 48.046690 -122.451283 317 5505ft 144kts
15-May-20 09:26 48.076319 -122.491971 317 5506ft 144kts
15-May-20 09:27 48.106002 -122.532794 317 5506ft 144kts
15-May-20 09:28 48.135748 -122.573771 317 5506ft 144kts
15-May-20 09:29 48.165297 -122.614548 317 5506ft 144kts
15-May-20 09:30 48.194973 -122.655566 317 5506ft 144kts
15-May-20 09:31 48.224548 -122.696510 317 5506ft 144kts
15-May-20 09:32 48.258737 -122.722731 356 5504ft 144kts
15-May-20 09:33 48.297153 -122.739991 343 5509ft 144kts
15-May-20 09:34 48.335918 -122.756457 344 5507ft 144kts
15-May-20 09:35 48.374874 -122.772526 344 5506ft 144kts
15-May-20 09:36 48.415579 -122.789284 344 5098ft 157kts
15-May-20 09:37 48.457985 -122.806766 344 4596ft 157kts
15-May-20 09:38 48.498503 -122.823497 344 4498ft 144kts
15-May-20 09:39 48.536659 -122.839279 344 4505ft 141kts
15-May-20 09:40 48.572969 -122.862372 334 4453ft 146kts
15-May-20 09:41 48.610850 -122.894095 329 3769ft 158kts
15-May-20 09:42 48.649868 -122.923209 346 3063ft 156kts
15-May-20 09:43 48.688174 -122.921006 23 2891ft 143kts
15-May-20 09:44 48.729919 -122.906226 7 2283ft 169kts
15-May-20 09:45 48.774103 -122.903103 324 1201ft 157kts
15-May-20 09:46 48.769763 -122.946875 171 1125ft 114kts
15-May-20 09:47 48.744007 -122.915179 132 1118ft 111kts
15-May-20 09:48 48.723489 -122.904386 209 649ft 80kts
15-May-20 09:49 48.706172 -122.910592 181 34ft 15kts
15-May-20 09:50 48.705155 -122.910009 1 34ft 0kts
15-May-20 09:51 48.705341 -122.909674 90 34ft 0kts
15-May-20 09:53 48.705341 -122.909672 90 34ft 0kts
15-May-20 09:54 48.705341 -122.909670 90 34ft 0kts
15-May-20 09:55 48.705341 -122.909668 90 34ft 0kts
15-May-20 09:56 48.705341 -122.909666 90 34ft 0kts
15-May-20 09:57 48.705341 -122.909664 90 34ft 0kts
15-May-20 09:58 48.705341 -122.909663 90 34ft 0kts
15-May-20 09:59 48.705341 -122.909661 90 34ft 0kts
15-May-20 10:00 48.705341 -122.909659 90 34ft 0kts
15-May-20 10:01 48.705341 -122.909657 90 34ft 0kts
15-May-20 10:02 48.705341 -122.909656 90 34ft 0kts
15-May-20 10:03 48.705341 -122.909654 90 34ft 0kts
15-May-20 10:04 48.705341 -122.909652 90 34ft 0kts

Navigation Log

Ident Type
Flight plan parsing failed, navigation log unavailable